Time;durP1;ratioP1;P1;durP2;ratioP2;P2;SDS_P1;SDS_P2;PMS_P1;PMS_P2;Temp;Humidity;BMP_temperature;BMP_pressure;BME280_temperature;BME280_humidity;BME280_pressure;Samples;Min_cycle;Max_cycle;Signal;HPM_P1;HPM_P2
2021/04/05 00:00:11;;;;;;;33.80;20.50;;;;;;;0.79;76.12;99188.13;1759015;81;21118;-67
2021/04/05 00:02:38;;;;;;;34.40;21.20;;;;;;;0.78;76.21;99179.06;1757431;81;21603;-66
2021/04/05 00:05:10;;;;;;;37.80;20.62;;;;;;;0.87;76.00;99194.34;1760406;81;21086;-66
2021/04/05 00:07:46;;;;;;;29.80;18.10;;;;;;;0.97;75.52;99185.25;1761507;81;21142;-66
2021/04/05 00:10:23;;;;;;;27.73;17.12;;;;;;;0.88;75.77;99171.74;1758465;81;21178;-66
2021/04/05 00:12:52;;;;;;;30.35;16.82;;;;;;;0.75;76.27;99177.42;1757517;81;21265;-66
2021/04/05 00:15:19;;;;;;;32.33;17.20;;;;;;;0.62;76.54;99184.03;1726226;83;21182;-66
2021/04/05 00:17:47;;;;;;;29.18;15.83;;;;;;;0.60;76.54;99178.02;1696905;84;21198;-66
2021/04/05 00:20:18;;;;;;;33.23;19.48;;;;;;;0.48;76.82;99171.08;1695812;84;21810;-66
2021/04/05 00:22:46;;;;;;;33.35;17.15;;;;;;;0.54;76.87;99165.24;1706793;84;21199;-67
2021/04/05 00:25:15;;;;;;;26.97;15.60;;;;;;;0.66;76.71;99168.69;1699998;84;21148;-67
2021/04/05 00:27:42;;;;;;;25.97;14.63;;;;;;;0.57;76.80;99158.64;1693827;85;21215;-67
2021/04/05 00:30:18;;;;;;;33.70;19.35;;;;;;;0.48;77.06;99152.03;1673670;86;21204;-67
2021/04/05 00:32:49;;;;;;;33.88;19.23;;;;;;;0.45;77.23;99158.20;1712625;83;21152;-67
2021/04/05 00:35:18;;;;;;;30.35;18.52;;;;;;;0.62;76.80;99158.84;1720031;82;21149;-67
2021/04/05 00:37:47;;;;;;;26.73;17.20;;;;;;;0.68;76.75;99164.28;1720225;83;21181;-67
2021/04/05 00:40:17;;;;;;;29.65;17.30;;;;;;;0.65;76.87;99156.14;1720566;83;21186;-67
2021/04/05 00:42:45;;;;;;;27.73;17.07;;;;;;;0.63;77.00;99157.10;1692661;85;21178;-67
2021/04/05 00:45:15;;;;;;;29.05;17.67;;;;;;;0.71;76.85;99156.33;1719592;83;21115;-67
2021/04/05 00:47:46;;;;;;;27.98;16.50;;;;;;;0.84;76.43;99170.18;1692445;85;21686;-67
2021/04/05 00:50:18;;;;;;;29.82;17.73;;;;;;;0.76;76.64;99154.40;1714329;83;21170;-67
2021/04/05 00:52:51;;;;;;;24.50;14.00;;;;;;;0.69;76.71;99156.88;1692347;85;21129;-66
2021/04/05 00:55:20;;;;;;;24.20;15.68;;;;;;;0.61;76.75;99153.70;1720007;83;21581;-66
2021/04/05 00:57:47;;;;;;;23.50;14.43;;;;;;;0.56;76.73;99149.97;1718612;83;21132;-67
2021/04/05 01:00:22;;;;;;;28.85;16.10;;;;;;;0.51;76.77;99147.16;1677896;83;21209;-67
2021/04/05 01:02:49;;;;;;;26.23;14.83;;;;;;;0.53;76.67;99150.56;1704666;83;21186;-66
2021/04/05 01:05:17;;;;;;;26.33;16.45;;;;;;;0.57;76.30;99154.27;1719855;83;21159;-66
2021/04/05 01:07:44;;;;;;;31.93;18.95;;;;;;;0.42;76.54;99145.33;1719963;83;21194;-66
2021/04/05 01:10:12;;;;;;;28.57;18.77;;;;;;;0.31;77.02;99142.28;1692581;85;21671;-66
2021/04/05 01:12:40;;;;;;;30.65;17.98;;;;;;;0.28;77.37;99146.28;1708836;83;21178;-66
2021/04/05 01:15:10;;;;;;;29.72;17.82;;;;;;;0.42;76.92;99137.52;1681588;83;21147;-66
2021/04/05 01:17:38;;;;;;;28.98;17.20;;;;;;;0.47;76.67;99136.89;1719855;83;21203;-68
2021/04/05 01:20:11;;;;;;;33.55;18.07;;;;;;;0.35;76.86;99137.81;1720165;83;21202;-67
2021/04/05 01:22:44;;;;;;;;;;;;;;;0.24;77.20;99140.34;1722280;83;21175;-66
2021/04/05 01:25:14;;;;;;;31.30;17.20;;;;;;;0.21;77.41;99143.07;1719880;83;20176;-66
2021/04/05 01:27:42;;;;;;;36.23;19.27;;;;;;;0.29;77.22;99141.48;1719774;83;21288;-66
2021/04/05 01:30:28;;;;;;;30.40;17.37;;;;;;;0.36;76.98;99141.65;1719855;83;21587;-66
2021/04/05 01:33:10;;;;;;;30.77;17.77;;;;;;;0.31;77.10;99134.48;1712232;83;21155;-66
2021/04/05 01:35:48;;;;;;;31.05;18.05;;;;;;;0.23;77.16;99134.77;1717514;82;21159;-66
2021/04/05 01:38:18;;;;;;;35.73;17.27;;;;;;;0.23;76.96;99133.47;1718190;83;21167;-66
2021/04/05 01:40:53;;;;;;;26.90;16.25;;;;;;;0.24;76.82;99129.10;1718612;83;21143;-66
2021/04/05 01:43:21;;;;;;;27.93;17.10;;;;;;;0.25;76.82;99136.01;1718091;83;21171;-66
2021/04/05 01:45:51;;;;;;;26.20;13.80;;;;;;;0.34;76.49;99123.94;1718426;83;21171;-66
2021/04/05 01:48:21;;;;;;;30.50;16.52;;;;;;;0.25;76.54;99121.70;1717590;83;21580;-65
2021/04/05 01:50:49;;;;;;;24.70;15.53;;;;;;;0.09;76.89;99118.38;1717497;83;21175;-65
2021/04/05 01:53:19;;;;;;;29.45;16.80;;;;;;;0.08;77.28;99120.58;1717233;83;21160;-66
2021/04/05 01:55:46;;;;;;;24.07;15.28;;;;;;;0.24;76.88;99118.23;1717393;83;21155;-66
2021/04/05 01:58:18;;;;;;;28.55;17.25;;;;;;;0.28;76.82;99121.57;1717567;83;21316;-66
2021/04/05 02:00:45;;;;;;;29.45;17.07;;;;;;;0.20;77.07;99115.83;1717199;83;21175;-66
2021/04/05 02:03:14;;;;;;;27.00;15.18;;;;;;;0.17;77.26;99115.49;1717404;83;21182;-65
2021/04/05 02:05:54;;;;;;;30.35;17.37;;;;;;;0.21;77.07;99111.86;1717440;83;21302;-66
2021/04/05 02:08:23;;;;;;;29.40;16.40;;;;;;;0.12;77.02;99106.55;1717402;83;21151;-66
2021/04/05 02:10:51;;;;;;;27.87;15.15;;;;;;;0.12;76.90;99110.45;1717625;83;21679;-66
2021/04/05 02:13:20;;;;;;;24.90;14.58;;;;;;;0.03;76.92;99107.38;1717611;83;21722;-66
2021/04/05 02:15:50;;;;;;;21.70;12.85;;;;;;;0.02;76.93;99105.67;1717400;83;21619;-66
2021/04/05 02:18:18;;;;;;;33.67;17.55;;;;;;;-0.06;77.10;99109.86;1717571;83;21176;-67
2021/04/05 02:20:45;;;;;;;30.70;17.02;;;;;;;-0.07;77.14;99117.25;1718050;83;21174;-67
2021/04/05 02:23:13;;;;;;;28.55;16.17;;;;;;;-0.10;77.34;99116.05;1717660;83;21151;-67
2021/04/05 02:28:16;;;;;;;27.62;16.20;;;;;;;0.00;77.46;99113.53;1814071;79;22361;-66
2021/04/05 02:30:44;;;;;;;26.50;16.27;;;;;;;-0.01;77.25;99107.94;1777400;80;21127;-66
2021/04/05 02:33:11;;;;;;;28.38;16.82;;;;;;;-0.02;77.42;99116.63;1785744;80;21162;-66
2021/04/05 02:35:40;;;;;;;30.57;17.37;;;;;;;0.12;76.91;99111.75;1760946;80;21204;-66
2021/04/05 02:38:07;;;;;;;29.07;17.70;;;;;;;0.20;76.69;99117.13;1732650;81;21296;-66
2021/04/05 02:40:34;;;;;;;34.27;18.23;;;;;;;0.10;76.91;99107.08;1758922;81;21187;-66
2021/04/05 02:43:01;;;;;;;32.08;18.75;;;;;;;-0.01;77.16;99123.53;1760063;80;21162;-66
2021/04/05 02:45:29;;;;;;;32.03;19.35;;;;;;;-0.01;77.16;99106.63;1722541;83;21222;-66
2021/04/05 02:47:58;;;;;;;32.28;18.73;;;;;;;0.00;77.15;99108.34;1727876;83;22332;-66
2021/04/05 02:50:29;;;;;;;33.30;18.00;;;;;;;0.02;77.11;99113.47;1722362;83;21544;-66
2021/04/05 02:52:58;;;;;;;41.15;21.60;;;;;;;0.01;77.12;99110.00;1715531;83;21345;-66
2021/04/05 02:55:25;;;;;;;39.78;21.17;;;;;;;0.02;77.15;99103.91;1699313;83;21162;-66
2021/04/05 02:57:53;;;;;;;42.70;24.23;;;;;;;0.15;76.84;99096.48;1702896;83;21726;-66
2021/04/05 03:00:21;;;;;;;37.80;21.90;;;;;;;0.10;76.90;99103.62;1708812;83;21192;-66
2021/04/05 03:02:51;;;;;;;45.03;23.47;;;;;;;0.03;77.15;99100.88;1727612;83;21349;-66
2021/04/05 03:05:22;;;;;;;34.05;21.25;;;;;;;-0.01;77.11;99100.13;1695111;83;21147;-67
2021/04/05 03:07:51;;;;;;;36.13;20.80;;;;;;;0.00;76.95;99094.04;1727707;83;21191;-67
2021/04/05 03:10:23;;;;;;;45.20;22.65;;;;;;;-0.10;77.03;99099.16;1715869;83;21776;-67
2021/04/05 03:12:56;;;;;;;37.78;21.68;;;;;;;-0.09;77.11;99087.42;1698552;84;21124;-67
2021/04/05 03:15:25;;;;;;;34.53;20.37;;;;;;;-0.10;77.26;99094.82;1698585;84;21155;-67
2021/04/05 03:17:59;;;;;;;31.10;19.25;;;;;;;-0.07;77.16;99094.70;1698496;84;21306;-67
2021/04/05 03:20:32;;;;;;;35.58;20.08;;;;;;;-0.09;77.33;99080.92;1738542;82;21722;-67
2021/04/05 03:23:01;;;;;;;29.05;17.52;;;;;;;-0.03;77.24;99088.94;1724528;83;21167;-67
2021/04/05 03:25:29;;;;;;;32.13;18.67;;;;;;;-0.01;77.16;99094.94;1724186;83;21182;-66
2021/04/05 03:27:57;;;;;;;34.80;18.35;;;;;;;0.04;77.08;99087.81;1716852;83;21186;-67
2021/04/05 03:30:36;;;;;;;38.78;21.12;;;;;;;0.09;77.17;99080.68;1756429;80;21155;-66
2021/04/05 03:33:19;;;;;;;37.75;20.10;;;;;;;0.14;76.93;99070.95;1756707;80;21298;-66
2021/04/05 03:35:56;;;;;;;32.20;17.98;;;;;;;0.16;76.81;99083.42;1749774;82;21155;-66
2021/04/05 03:38:24;;;;;;;34.43;18.25;;;;;;;0.17;76.61;99072.59;1749522;80;21318;-66
2021/04/05 03:40:51;;;;;;;35.88;19.30;;;;;;;0.05;76.62;99071.75;1749187;82;21147;-65
2021/04/05 03:43:38;;;;;;;36.95;18.45;;;;;;;0.02;76.66;99071.87;1759635;80;21164;-66
2021/04/05 03:46:17;;;;;;;49.45;24.55;;;;;;;-0.07;76.89;99078.27;1762604;80;21553;-66
2021/04/05 03:49:02;;;;;;;52.35;25.72;;;;;;;-0.07;76.98;99065.27;1750004;80;21167;-65
2021/04/05 03:51:57;;;;;;;56.08;25.55;;;;;;;-0.04;77.27;99072.94;1746311;80;21285;-67
2021/04/05 03:54:26;;;;;;;49.65;23.67;;;;;;;0.18;77.03;99069.52;1773370;80;21183;-66
2021/04/05 03:56:53;;;;;;;50.73;27.30;;;;;;;0.21;77.01;99065.52;1768421;80;21313;-66
2021/04/05 03:59:42;;;;;;;41.20;21.00;;;;;;;0.15;77.36;99076.55;1749248;80;21175;-67
2021/04/05 04:02:19;;;;;;;37.53;20.85;;;;;;;0.18;77.56;99073.42;1750646;80;21160;-66
2021/04/05 04:04:58;;;;;;;72.30;37.67;;;;;;;0.25;77.43;99064.02;1703808;83;22298;-66
2021/04/05 04:07:34;;;;;;;46.30;26.25;;;;;;;0.28;77.62;99066.95;1691505;83;21233;-67
2021/04/05 04:09:56;;;;;;;41.02;22.07;;;;;;;0.44;77.55;99059.41;1769178;80;21270;-67
2021/04/05 04:12:24;;;;;;;38.42;20.95;;;;;;;0.49;77.57;99059.60;1758065;80;21192;-67
2021/04/05 04:14:51;;;;;;;37.53;22.13;;;;;;;0.65;77.34;99061.58;1749223;82;21216;-68
2021/04/05 04:17:18;;;;;;;43.13;22.80;;;;;;;0.84;77.08;99060.84;1749264;82;21771;-67
2021/04/05 04:19:45;;;;;;;32.48;20.88;;;;;;;0.86;77.20;99061.61;1748930;82;21258;-67
2021/04/05 04:22:13;;;;;;;40.17;22.30;;;;;;;0.82;77.25;99062.22;1749003;82;21332;-67
2021/04/05 04:24:40;;;;;;;39.10;21.93;;;;;;;0.84;77.43;99055.64;1749159;82;21179;-67
2021/04/05 04:27:07;;;;;;;38.53;21.57;;;;;;;0.94;77.21;99056.94;1738713;82;21321;-68
2021/04/05 04:29:35;;;;;;;35.45;21.42;;;;;;;1.16;76.81;99058.17;1719369;83;21644;-68
2021/04/05 04:32:03;;;;;;;35.60;19.40;;;;;;;1.21;76.72;99061.42;1732017;82;21241;-67
2021/04/05 04:34:30;;;;;;;41.77;24.52;;;;;;;1.21;76.70;99062.73;1732961;82;21166;-67
2021/04/05 04:37:02;;;;;;;52.27;25.23;;;;;;;1.21;76.74;99048.87;1725586;82;21170;-67
2021/04/05 04:39:29;;;;;;;52.00;24.47;;;;;;;1.28;76.71;99044.62;1745475;82;21539;-67
2021/04/05 04:41:57;;;;;;;57.70;27.05;;;;;;;1.53;76.05;99047.92;1734499;82;21316;-67
2021/04/05 04:44:25;;;;;;;62.83;28.50;;;;;;;1.58;75.92;99042.05;1730658;82;21130;-67
2021/04/05 04:46:54;;;;;;;58.08;27.10;;;;;;;1.56;75.96;99047.33;1730431;82;21162;-67
2021/04/05 04:49:22;;;;;;;56.70;27.87;;;;;;;1.57;76.02;99040.34;1734538;82;21252;-68
2021/04/05 04:51:49;;;;;;;49.45;24.23;;;;;;;1.55;76.23;99039.55;1737766;82;21139;-67
2021/04/05 04:57:17;;;;;;;49.53;26.05;;;;;;;1.93;75.77;99029.15;1772837;79;22755;-66
2021/04/05 04:59:45;;;;;;;47.80;26.10;;;;;;;1.95;75.84;99042.97;1745510;82;21614;-65
2021/04/05 05:02:12;;;;;;;52.35;26.65;;;;;;;2.07;76.04;99029.38;1729449;82;21198;-67
2021/04/05 05:04:39;;;;;;;75.65;31.10;;;;;;;2.30;76.35;99023.50;1716917;83;21207;-67
2021/04/05 05:07:06;;;;;;;53.98;27.82;;;;;;;2.76;76.33;99016.05;1704958;83;21813;-68
2021/04/05 05:09:33;;;;;;;38.65;21.50;;;;;;;3.69;74.45;99020.88;1720987;83;21158;-69
2021/04/05 05:12:01;;;;;;;39.20;20.77;;;;;;;4.61;72.21;99000.99;1707136;83;21575;-69
2021/04/05 05:14:28;;;;;;;41.23;21.20;;;;;;;5.31;70.25;99014.32;1720727;83;21170;-69
2021/04/05 05:16:55;;;;;;;32.80;17.92;;;;;;;5.88;69.01;99009.97;1723153;83;21341;-69
2021/04/05 05:19:22;;;;;;;32.88;17.00;;;;;;;6.43;67.27;99009.56;1723462;82;21183;-69
2021/04/05 05:21:53;;;;;;;24.80;15.05;;;;;;;6.92;65.92;99006.81;1723179;83;21163;-69
2021/04/05 05:24:23;;;;;;;22.67;13.28;;;;;;;7.31;64.62;99005.52;1723079;83;21167;-69
2021/04/05 05:26:50;;;;;;;19.07;11.53;;;;;;;7.23;63.12;99007.36;1723093;83;21175;-69
2021/04/05 05:29:18;;;;;;;21.45;11.65;;;;;;;6.88;62.31;99001.40;1695047;83;21556;-68
2021/04/05 05:31:46;;;;;;;21.00;11.20;;;;;;;6.55;63.06;99002.69;1710924;83;21193;-70
2021/04/05 05:34:18;;;;;;;20.10;11.10;;;;;;;6.37;63.04;99008.19;1697018;83;21511;-69
2021/04/05 05:36:48;;;;;;;20.10;11.50;;;;;;;6.18;63.01;99007.22;1721468;83;21167;-68
2021/04/05 05:39:17;;;;;;;23.55;13.35;;;;;;;6.02;63.20;99004.75;1722698;83;21183;-66
2021/04/05 05:42:21;;;;;;;20.12;12.50;;;;;;;5.87;63.37;99006.52;1719705;83;21325;-67
2021/04/05 05:44:58;;;;;;;;;;;;;;;5.82;63.34;99001.16;1696505;85;21332;-66
2021/04/05 05:48:01;;;;;;;28.87;16.77;;;;;;;5.85;63.21;99004.92;1686991;85;20166;-67
2021/04/05 05:50:56;;;;;;;27.35;15.53;;;;;;;5.63;63.33;98997.08;1702375;83;21178;-67
2021/04/05 05:54:05;;;;;;;28.30;16.57;;;;;;;5.39;63.72;98995.02;1694308;85;21215;-68
2021/04/05 05:56:41;;;;;;;21.02;13.22;;;;;;;5.20;63.98;98993.98;1701093;83;21163;-65
2021/04/05 05:59:26;;;;;;;23.27;13.08;;;;;;;5.18;65.16;98983.21;1710084;84;21184;-65
2021/04/05 06:02:27;;;;;;;23.67;14.95;;;;;;;5.38;65.49;98980.25;1707803;83;21895;-65
2021/04/05 06:05:24;;;;;;;25.20;15.48;;;;;;;5.74;64.94;98978.89;1704842;84;21216;-65
2021/04/05 06:08:19;;;;;;;25.32;16.12;;;;;;;5.96;64.79;98972.30;1698571;84;21289;-66
2021/04/05 06:11:12;;;;;;;25.97;14.63;;;;;;;6.12;64.70;98971.34;1695380;84;21196;-66
2021/04/05 06:14:24;;;;;;;24.07;14.35;;;;;;;6.35;64.62;98972.47;1709183;84;21294;-65
2021/04/05 06:17:08;;;;;;;23.18;12.95;;;;;;;6.60;63.84;98973.47;1635230;86;21742;-65
2021/04/05 06:19:56;;;;;;;17.80;10.05;;;;;;;6.86;63.03;98963.84;1779844;79;23410;-66
2021/04/05 06:22:59;;;;;;;13.40;9.15;;;;;;;6.89;62.43;98961.00;1724485;82;21183;-65
2021/04/05 06:26:16;;;;;;;16.05;10.00;;;;;;;7.05;62.46;98957.70;1734652;82;21320;-64
2021/04/05 06:29:00;;;;;;;16.87;10.82;;;;;;;7.34;62.08;98961.44;1727616;82;21782;-65
2021/04/05 06:31:55;;;;;;;;;;;;;;;7.57;61.14;98954.19;1736711;82;21172;-65
2021/04/05 06:34:37;;;;;;;10.53;7.20;;;;;;;7.73;61.24;98952.63;1706987;83;20428;-65
2021/04/05 06:37:32;;;;;;;12.13;7.12;;;;;;;7.94;60.21;98952.87;1694385;85;21559;-65
2021/04/05 06:40:10;;;;;;;10.32;6.83;;;;;;;8.11;58.97;98951.67;1651061;87;21207;-65
2021/04/05 06:43:08;;;;;;;15.03;7.42;;;;;;;8.19;58.49;98951.94;1656422;85;21324;-65
2021/04/05 06:46:00;;;;;;;12.70;6.30;;;;;;;8.20;58.59;98956.25;1671760;85;21161;-64
2021/04/05 06:48:59;;;;;;;10.25;6.20;;;;;;;8.30;58.29;98938.81;1716846;83;21135;-64
2021/04/05 06:52:10;;;;;;;12.10;6.05;;;;;;;8.49;55.87;98952.81;1669631;85;21555;-65
2021/04/05 06:54:52;;;;;;;11.12;6.42;;;;;;;8.35;55.84;98951.17;1676417;85;21192;-64
2021/04/05 06:57:51;;;;;;;12.93;7.35;;;;;;;8.39;55.70;98947.84;1661923;85;21169;-66
2021/04/05 07:01:00;;;;;;;12.05;7.72;;;;;;;8.43;54.91;98946.65;1669689;85;21763;-65
2021/04/05 07:04:16;;;;;;;13.03;6.97;;;;;;;8.65;54.67;98956.45;1660282;85;21613;-65
2021/04/05 07:06:55;;;;;;;19.45;9.93;;;;;;;8.85;54.60;98944.89;1665464;85;21335;-64
2021/04/05 07:09:48;;;;;;;16.60;8.10;;;;;;;9.14;53.44;98945.30;1700891;84;21370;-64
2021/04/05 07:13:00;;;;;;;18.00;9.23;;;;;;;9.29;52.08;98944.56;1681341;84;21165;-64
2021/04/05 07:15:57;;;;;;;8.70;5.85;;;;;;;9.43;51.10;98943.48;1675010;85;21635;-64
2021/04/05 07:18:55;;;;;;;17.02;7.97;;;;;;;9.45;46.74;98941.58;1683384;84;21346;-64
2021/04/05 07:21:57;;;;;;;16.87;7.12;;;;;;;9.30;48.95;98939.66;1705198;82;21608;-65
2021/04/05 07:24:48;;;;;;;9.93;5.92;;;;;;;9.38;49.64;98936.91;1713793;82;21307;-65
2021/04/05 07:27:39;;;;;;;8.95;5.20;;;;;;;9.42;44.82;98925.14;1700379;82;21296;-65
2021/04/05 07:30:17;;;;;;;7.60;4.65;;;;;;;9.35;46.16;98922.98;1711517;82;21167;-65
2021/04/05 07:33:25;;;;;;;12.23;6.65;;;;;;;9.38;46.01;98921.90;1702289;83;21323;-64
2021/04/05 07:36:19;;;;;;;12.30;6.78;;;;;;;9.50;46.74;98924.05;1680289;84;21829;-66
2021/04/05 07:38:53;;;;;;;8.15;5.03;;;;;;;9.72;47.78;98913.09;1703171;82;21307;-65
2021/04/05 07:41:58;;;;;;;7.53;4.30;;;;;;;9.98;45.89;98914.47;1701257;82;21174;-66
2021/04/05 07:44:37;;;;;;;5.75;3.80;;;;;;;10.23;45.44;98913.80;1686922;82;21147;-66
2021/04/05 07:47:15;;;;;;;4.80;3.47;;;;;;;10.41;43.36;98901.36;1705803;82;21289;-66
2021/04/05 07:50:07;;;;;;;12.30;6.62;;;;;;;10.53;42.73;98900.34;1708907;82;21305;-65
2021/04/05 07:53:02;;;;;;;13.40;9.48;;;;;;;10.63;43.29;98895.96;1705091;82;21711;-64
2021/04/05 07:55:30;;;;;;;9.60;4.37;;;;;;;10.74;43.05;98891.10;1706688;82;21607;-65
2021/04/05 07:58:14;;;;;;;9.25;4.00;;;;;;;10.84;43.00;98888.98;1733306;82;21632;-65
2021/04/05 08:01:05;;;;;;;7.42;4.15;;;;;;;10.92;42.59;98882.08;1708635;82;21176;-65
2021/04/05 08:04:17;;;;;;;9.28;4.78;;;;;;;11.01;42.25;98882.24;1701353;82;21203;-65
2021/04/05 08:07:01;;;;;;;7.67;4.80;;;;;;;11.05;41.60;98877.03;1700099;82;21159;-66
2021/04/05 08:09:36;;;;;;;6.90;4.05;;;;;;;11.05;42.21;98871.28;1723565;82;21327;-65
2021/04/05 08:12:33;;;;;;;7.75;3.80;;;;;;;11.01;40.68;98867.69;1704622;84;21183;-65
2021/04/05 08:15:33;;;;;;;4.28;3.40;;;;;;;10.87;40.48;98867.09;1710028;82;21254;-66
2021/04/05 08:18:37;;;;;;;6.12;3.15;;;;;;;10.90;41.47;98862.02;1726527;82;21119;-66
2021/04/05 08:21:13;;;;;;;5.62;2.83;;;;;;;10.99;41.49;98859.39;1692999;83;21319;-65
2021/04/05 08:24:07;;;;;;;4.72;3.08;;;;;;;11.03;39.34;98853.86;1707841;84;21325;-64
2021/04/05 08:26:42;;;;;;;5.42;2.50;;;;;;;10.91;40.56;98847.83;1721422;83;21159;-65
2021/04/05 08:29:17;;;;;;;2.95;2.20;;;;;;;10.91;41.36;98849.16;1713438;82;21121;-66
2021/04/05 08:32:04;;;;;;;3.40;2.42;;;;;;;10.89;39.78;98833.39;1709884;82;21193;-64
2021/04/05 08:35:17;;;;;;;3.22;2.20;;;;;;;10.87;40.69;98839.31;1712992;82;21155;-64
2021/04/05 08:38:34;;;;;;;4.42;2.80;;;;;;;10.89;40.13;98825.45;1706779;82;21191;-65
2021/04/05 08:41:45;;;;;;;3.87;2.52;;;;;;;10.84;40.57;98833.45;1719982;82;21591;-65
2021/04/05 08:44:36;;;;;;;4.97;3.00;;;;;;;10.55;39.75;98818.26;1707192;82;21115;-65
2021/04/05 08:47:07;;;;;;;4.35;3.02;;;;;;;10.33;41.14;98822.69;1715063;82;21135;-65
2021/04/05 08:49:34;;;;;;;4.92;3.02;;;;;;;10.30;41.37;98811.89;1718916;82;21599;-65
2021/04/05 08:52:06;;;;;;;5.95;3.60;;;;;;;10.47;40.03;98809.66;1672159;83;21151;-65
2021/04/05 08:54:40;;;;;;;5.50;3.25;;;;;;;10.63;41.73;98806.06;1664464;84;21153;-65
2021/04/05 08:57:21;;;;;;;7.67;3.05;;;;;;;10.82;41.81;98797.38;1699185;83;21647;-65
2021/04/05 09:00:13;;;;;;;7.95;3.17;;;;;;;10.91;41.63;98795.75;1710981;82;21141;-64
2021/04/05 09:17:17;;;;;;;4.95;2.85;;;;;;;12.06;38.86;98775.00;1788220;78;22944;-66
2021/04/05 09:20:18;;;;;;;4.60;2.50;;;;;;;12.15;38.85;98776.83;1788375;80;21185;-66
2021/04/05 09:23:21;;;;;;;3.95;2.37;;;;;;;11.99;38.82;98769.44;1782727;78;21166;-67
2021/04/05 09:26:13;;;;;;;5.30;2.77;;;;;;;11.74;38.75;98768.16;1776801;79;22975;-66
2021/04/05 09:29:18;;;;;;;3.92;2.67;;;;;;;11.50;38.73;98764.13;1729080;82;21143;-66
2021/04/05 09:32:24;;;;;;;4.90;2.50;;;;;;;11.33;39.41;98751.56;1731967;82;21161;-66
2021/04/05 09:35:23;;;;;;;3.92;2.45;;;;;;;11.14;39.74;98759.83;1732460;80;21131;-67
2021/04/05 09:38:05;;;;;;;4.92;3.00;;;;;;;10.99;39.62;98753.58;1756760;80;21301;-66
2021/04/05 09:40:59;;;;;;;6.20;4.10;;;;;;;10.88;39.66;98751.06;1745475;81;21103;-66
2021/04/05 09:44:16;;;;;;;4.92;3.20;;;;;;;10.77;39.87;98753.31;1752408;80;22501;-66
2021/04/05 09:47:00;;;;;;;4.45;2.90;;;;;;;10.68;40.22;98754.58;1651788;80;21262;-68
2021/04/05 09:49:59;;;;;;;5.28;3.45;;;;;;;10.63;41.06;98745.25;1694194;83;21630;-67
2021/04/05 09:53:21;;;;;;;7.92;3.80;;;;;;;10.69;41.49;98735.11;1787505;79;22934;-67
2021/04/05 09:55:54;;;;;;;5.15;3.10;;;;;;;10.70;41.34;98739.43;1773656;79;21187;-67
2021/04/05 09:58:45;;;;;;;3.90;3.00;;;;;;;10.73;39.76;98741.80;1779436;79;21228;-67
2021/04/05 10:01:25;;;;;;;4.12;2.50;;;;;;;10.73;39.48;98736.04;1784554;79;21279;-66
2021/04/05 10:04:13;;;;;;;4.28;2.80;;;;;;;10.73;39.01;98727.25;1767987;80;21122;-66
2021/04/05 10:06:42;;;;;;;5.85;3.22;;;;;;;10.72;39.01;98733.53;1773393;79;21163;-66
2021/04/05 10:09:09;;;;;;;7.72;3.12;;;;;;;10.67;38.88;98734.42;1764840;80;21178;-68
2021/04/05 10:11:41;;;;;;;6.40;3.25;;;;;;;10.54;39.17;98714.33;1771828;79;21163;-67
2021/04/05 10:14:11;;;;;;;3.92;2.52;;;;;;;10.59;39.21;98729.30;1752102;80;21630;-67
2021/04/05 10:16:38;;;;;;;4.55;3.10;;;;;;;10.56;39.51;98724.30;1780562;79;21177;-65
2021/04/05 10:19:08;;;;;;;5.50;3.70;;;;;;;10.55;39.16;98718.66;1774249;79;21178;-65
2021/04/05 10:21:42;;;;;;;7.58;4.08;;;;;;;10.56;39.25;98716.83;1762695;80;21163;-66
2021/04/05 10:24:10;;;;;;;;;;;;;;;10.57;39.88;98714.55;1778604;79;21139;-66
2021/04/05 10:26:40;;;;;;;4.92;3.27;;;;;;;10.60;39.53;98703.22;1784429;79;20484;-66
2021/04/05 10:29:14;;;;;;;9.33;3.15;;;;;;;10.57;39.30;98707.44;1774438;79;21583;-66
2021/04/05 10:31:43;;;;;;;6.97;3.20;;;;;;;10.56;39.16;98704.94;1721388;83;21734;-66
2021/04/05 10:34:11;;;;;;;4.25;2.85;;;;;;;10.53;39.09;98699.93;1661358;83;21183;-66
2021/04/05 10:36:49;;;;;;;4.85;3.05;;;;;;;10.51;39.19;98701.36;1702069;84;21169;-66
2021/04/05 10:39:16;;;;;;;3.92;2.77;;;;;;;10.47;38.67;98703.92;1705750;83;21306;-66
2021/04/05 10:41:59;;;;;;;6.50;3.25;;;;;;;10.38;39.37;98692.83;1716425;83;21159;-66
2021/04/05 10:44:32;;;;;;;4.97;3.27;;;;;;;10.36;39.14;98693.44;1714221;83;21305;-66
2021/04/05 10:47:01;;;;;;;6.08;3.20;;;;;;;10.32;39.54;98693.69;1721071;83;21163;-66
2021/04/05 10:49:30;;;;;;;5.15;3.08;;;;;;;10.33;39.64;98685.27;1714505;83;21584;-66
2021/04/05 10:52:23;;;;;;;10.55;6.15;;;;;;;10.37;39.66;98692.02;1703749;83;21160;-67
2021/04/05 10:54:52;;;;;;;6.35;4.25;;;;;;;10.41;39.69;98684.63;1750159;80;21126;-66
2021/04/05 10:57:32;;;;;;;7.28;3.80;;;;;;;10.45;39.81;98663.59;1751856;80;21173;-67
2021/04/05 11:00:06;;;;;;;7.47;4.00;;;;;;;10.51;39.77;98666.17;1753505;81;21173;-66
2021/04/05 11:02:44;;;;;;;5.22;3.12;;;;;;;10.55;39.87;98668.42;1753018;80;21184;-66
2021/04/05 11:05:15;;;;;;;5.30;3.12;;;;;;;10.62;39.50;98653.67;1752957;80;21159;-66
2021/04/05 11:07:50;;;;;;;4.72;3.10;;;;;;;10.66;38.82;98656.89;1730434;81;21153;-66
2021/04/05 11:10:21;;;;;;;4.20;3.12;;;;;;;10.66;38.27;98647.64;1756422;80;21132;-66
2021/04/05 11:12:52;;;;;;;6.28;3.25;;;;;;;10.65;38.11;98650.78;1768399;80;21282;-66
2021/04/05 11:15:20;;;;;;;5.15;2.60;;;;;;;10.68;38.00;98652.31;1751411;80;21189;-66
2021/04/05 11:17:50;;;;;;;6.12;2.60;;;;;;;10.69;35.21;98639.91;1759746;81;21151;-67
2021/04/05 11:20:19;;;;;;;4.15;2.20;;;;;;;10.62;35.97;98643.09;1777776;80;21171;-66
2021/04/05 11:22:48;;;;;;;6.33;2.75;;;;;;;10.64;35.64;98645.13;1788744;80;21222;-66
2021/04/05 11:25:23;;;;;;;5.00;2.70;;;;;;;10.67;35.74;98631.30;1763162;80;21167;-65
2021/04/05 11:27:55;;;;;;;4.05;2.67;;;;;;;10.73;35.97;98633.38;1761234;80;21611;-67
2021/04/05 11:30:24;;;;;;;4.92;2.70;;;;;;;10.86;36.04;98632.65;1761028;80;21192;-66
2021/04/05 11:32:52;;;;;;;6.10;3.05;;;;;;;10.95;35.82;98630.99;1749587;80;21167;-66
2021/04/05 11:35:22;;;;;;;6.58;3.00;;;;;;;10.94;36.06;98615.59;1749662;80;21346;-66
2021/04/05 11:37:49;;;;;;;6.85;2.80;;;;;;;10.91;36.37;98610.59;1753599;80;21645;-66
2021/04/05 11:40:19;;;;;;;4.60;2.95;;;;;;;10.94;36.96;98615.59;1752615;80;21133;-65
2021/04/05 11:42:49;;;;;;;5.22;2.60;;;;;;;10.99;36.56;98609.39;1714431;83;21215;-66
2021/04/05 11:45:23;;;;;;;4.80;3.00;;;;;;;10.98;36.34;98601.14;1735527;81;21182;-66
2021/04/05 11:47:50;;;;;;;7.17;3.33;;;;;;;10.96;36.83;98604.39;1765023;80;21162;-66
2021/04/05 11:50:24;;;;;;;4.45;3.08;;;;;;;10.98;36.63;98597.64;1737571;80;21151;-66
2021/04/05 11:52:55;;;;;;;5.03;2.92;;;;;;;10.95;36.85;98593.46;1725641;80;21320;-66
2021/04/05 11:55:29;;;;;;;7.62;3.40;;;;;;;10.93;37.08;98589.28;1775819;80;21174;-66
2021/04/05 11:58:16;;;;;;;6.10;3.72;;;;;;;10.95;36.89;98593.46;1774502;80;21134;-65
2021/04/05 12:00:53;;;;;;;9.63;4.42;;;;;;;10.94;37.38;98585.17;1772148;80;21125;-64
2021/04/05 12:03:49;;;;;;;5.25;3.58;;;;;;;10.93;38.35;98580.88;1767745;80;21160;-64
2021/04/05 12:06:23;;;;;;;22.15;13.20;;;;;;;10.99;37.99;98576.83;1770494;80;21123;-65
2021/04/05 12:09:05;;;;;;;10.35;6.17;;;;;;;11.00;37.50;98583.80;1753783;82;21162;-66
2021/04/05 12:11:42;;;;;;;4.50;3.20;;;;;;;10.94;37.49;98571.13;1756000;80;21295;-65
2021/04/05 12:14:14;;;;;;;4.83;3.35;;;;;;;10.95;37.50;98565.69;1765981;80;21138;-65
2021/04/05 12:16:43;;;;;;;9.33;4.45;;;;;;;10.91;37.02;98559.01;1765548;80;21171;-65
2021/04/05 12:19:11;;;;;;;7.20;4.70;;;;;;;10.85;38.02;98564.03;1743364;80;21175;-65
2021/04/05 12:21:39;;;;;;;6.37;3.00;;;;;;;10.76;37.86;98565.69;1762269;80;21177;-65
2021/04/05 12:24:09;;;;;;;6.12;3.12;;;;;;;10.69;38.06;98561.45;1720144;80;21543;-65
2021/04/05 12:26:36;;;;;;;7.20;3.20;;;;;;;10.67;38.61;98551.98;1765214;80;21147;-65
2021/04/05 12:29:07;;;;;;;4.92;3.40;;;;;;;10.69;38.21;98550.02;1765569;80;21610;-65
2021/04/05 12:31:35;;;;;;;7.03;3.60;;;;;;;10.74;38.02;98549.11;1756545;80;21715;-66
2021/04/05 12:34:12;;;;;;;5.70;3.47;;;;;;;10.70;37.63;98541.94;1756646;80;21173;-65
2021/04/05 12:36:40;;;;;;;7.60;3.58;;;;;;;10.75;37.70;98541.53;1768935;81;21195;-66